EWG449 LICJ-LGKF
Flight info
| Callsign | EWG449 |
|---|---|
| Flight time | 0h 58m |
| Altitude | 37000 |
| Route | ROSAS DCT REGSO DCT EKPAR/N0443F380 DCT RUTOM DCT LASKO |
| Aircraft | A320/M-SDE3FGHIRWY/LB1 |
Departure
| Time | 2026-04-30 12:19 |
|---|---|
| Airport | Falcone–Borsellino Airport (LICJ) |
Arrival
| Time | 2026-04-30 13:17 |
|---|---|
| Airport | Kefallinia Airport (LGKF) |
| Time | Latitude | Longitude | Altitude | Speed | Heading |
|---|---|---|---|---|---|
| 2026-04-30 11:53 | 38.18495 | 13.10467 | 53 ft | 0 kts | 337° |
| 2026-04-30 12:07 | 38.18488 | 13.10471 | 53 ft | 2 kts | 337° |
| 2026-04-30 12:08 | 38.18473 | 13.10479 | 51 ft | 2 kts | 337° |
| 2026-04-30 12:08 | 38.18457 | 13.10488 | 51 ft | 2 kts | 337° |
| 2026-04-30 12:08 | 38.18441 | 13.10490 | 53 ft | 2 kts | 46° |
| 2026-04-30 12:08 | 38.18437 | 13.10486 | 53 ft | 0 kts | 57° |
| 2026-04-30 12:10 | 38.18437 | 13.10502 | 51 ft | 5 kts | 104° |
| 2026-04-30 12:11 | 38.18411 | 13.10509 | 53 ft | 3 kts | 191° |
| 2026-04-30 12:11 | 38.18393 | 13.10504 | 53 ft | 2 kts | 193° |
| 2026-04-30 12:11 | 38.18329 | 13.10483 | 53 ft | 20 kts | 198° |
| 2026-04-30 12:11 | 38.18282 | 13.10378 | 52 ft | 11 kts | 204° |
| 2026-04-30 12:12 | 38.18214 | 13.10348 | 51 ft | 10 kts | 230° |
| 2026-04-30 12:12 | 38.18180 | 13.10255 | 53 ft | 17 kts | 245° |
| 2026-04-30 12:12 | 38.18131 | 13.10117 | 53 ft | 16 kts | 246° |
| 2026-04-30 12:12 | 38.18087 | 13.09991 | 53 ft | 15 kts | 246° |
| 2026-04-30 12:13 | 38.18048 | 13.09878 | 53 ft | 13 kts | 246° |
| 2026-04-30 12:13 | 38.18013 | 13.09775 | 50 ft | 12 kts | 247° |
| 2026-04-30 12:13 | 38.17982 | 13.09678 | 53 ft | 13 kts | 248° |
| 2026-04-30 12:13 | 38.17942 | 13.09537 | 50 ft | 20 kts | 252° |
| 2026-04-30 12:14 | 38.17875 | 13.09355 | 53 ft | 24 kts | 247° |
| 2026-04-30 12:14 | 38.17809 | 13.09160 | 52 ft | 24 kts | 247° |
| 2026-04-30 12:14 | 38.17740 | 13.08969 | 53 ft | 24 kts | 236° |
| 2026-04-30 12:14 | 38.17620 | 13.08833 | 52 ft | 22 kts | 216° |
| 2026-04-30 12:15 | 38.17492 | 13.08736 | 53 ft | 20 kts | 200° |
| 2026-04-30 12:15 | 38.17364 | 13.08681 | 53 ft | 19 kts | 198° |
| 2026-04-30 12:15 | 38.17246 | 13.08630 | 53 ft | 17 kts | 198° |
| 2026-04-30 12:15 | 38.17140 | 13.08585 | 53 ft | 16 kts | 198° |
| 2026-04-30 12:16 | 38.17042 | 13.08543 | 53 ft | 14 kts | 198° |
| 2026-04-30 12:16 | 38.16952 | 13.08505 | 52 ft | 13 kts | 198° |
| 2026-04-30 12:16 | 38.16871 | 13.08471 | 51 ft | 12 kts | 198° |
| 2026-04-30 12:16 | 38.16797 | 13.08441 | 51 ft | 11 kts | 195° |
| 2026-04-30 12:17 | 38.16643 | 13.08518 | 53 ft | 14 kts | 128° |
| 2026-04-30 12:17 | 38.16660 | 13.08589 | 53 ft | 9 kts | 11° |
| 2026-04-30 12:17 | 38.16697 | 13.08606 | 53 ft | 0 kts | 23° |
| 2026-04-30 12:18 | 38.16910 | 13.08725 | 53 ft | 78 kts | 24° |
| 2026-04-30 12:18 | 38.17660 | 13.09151 | 109 ft | 147 kts | 25° |
| 2026-04-30 12:18 | 38.18669 | 13.09703 | 575 ft | 177 kts | 23° |
| 2026-04-30 12:18 | 38.19971 | 13.10428 | 560 ft | 235 kts | 24° |
| 2026-04-30 12:19 | 38.21564 | 13.11321 | 1149 ft | 249 kts | 24° |
| 2026-04-30 12:19 | 38.23172 | 13.12229 | 1812 ft | 250 kts | 24° |
| 2026-04-30 12:19 | 38.24771 | 13.13134 | 2351 ft | 252 kts | 23° |
| 2026-04-30 12:19 | 38.26386 | 13.14054 | 3238 ft | 256 kts | 25° |
| 2026-04-30 12:20 | 38.27986 | 13.15070 | 4131 ft | 261 kts | 27° |
| 2026-04-30 12:20 | 38.29621 | 13.16172 | 4952 ft | 270 kts | 26° |
| 2026-04-30 12:20 | 38.31295 | 13.17319 | 5797 ft | 275 kts | 27° |
| 2026-04-30 12:20 | 38.32969 | 13.18467 | 6690 ft | 277 kts | 26° |
| 2026-04-30 12:21 | 38.34684 | 13.19640 | 7574 ft | 280 kts | 25° |
| 2026-04-30 12:21 | 38.36421 | 13.20824 | 8428 ft | 283 kts | 25° |
| 2026-04-30 12:21 | 38.38152 | 13.22001 | 9302 ft | 286 kts | 25° |
| 2026-04-30 12:21 | 38.39924 | 13.23208 | 10156 ft | 289 kts | 25° |
| 2026-04-30 12:22 | 38.41769 | 13.24457 | 10513 ft | 311 kts | 24° |
| 2026-04-30 12:22 | 38.43735 | 13.25779 | 10740 ft | 334 kts | 24° |
| 2026-04-30 12:22 | 38.45834 | 13.27190 | 11232 ft | 346 kts | 24° |
| 2026-04-30 12:22 | 38.47980 | 13.28640 | 11923 ft | 351 kts | 25° |
| 2026-04-30 12:23 | 38.50154 | 13.30116 | 12648 ft | 356 kts | 24° |
| 2026-04-30 12:23 | 38.52361 | 13.31616 | 13364 ft | 360 kts | 24° |
| 2026-04-30 12:23 | 38.54564 | 13.33113 | 14043 ft | 364 kts | 24° |
| 2026-04-30 12:23 | 38.56819 | 13.34645 | 14673 ft | 368 kts | 24° |
| 2026-04-30 12:24 | 38.59095 | 13.36193 | 15313 ft | 372 kts | 24° |
| 2026-04-30 12:24 | 38.61364 | 13.37739 | 15936 ft | 375 kts | 24° |
| 2026-04-30 12:24 | 38.63682 | 13.39320 | 16566 ft | 379 kts | 24° |
| 2026-04-30 12:24 | 38.66021 | 13.40916 | 17181 ft | 382 kts | 24° |
| 2026-04-30 12:25 | 38.68391 | 13.42534 | 17807 ft | 386 kts | 24° |
| 2026-04-30 12:25 | 38.70744 | 13.44141 | 18419 ft | 389 kts | 24° |
| 2026-04-30 12:25 | 38.73143 | 13.45781 | 18944 ft | 392 kts | 24° |
| 2026-04-30 12:25 | 38.75572 | 13.47441 | 19498 ft | 395 kts | 24° |
| 2026-04-30 12:26 | 38.78010 | 13.49110 | 20056 ft | 398 kts | 25° |
| 2026-04-30 12:26 | 38.80300 | 13.51102 | 20611 ft | 407 kts | 38° |
| 2026-04-30 12:26 | 38.82216 | 13.53829 | 21147 ft | 416 kts | 52° |
| 2026-04-30 12:26 | 38.83575 | 13.57173 | 21668 ft | 426 kts | 67° |
| 2026-04-30 12:27 | 38.84240 | 13.60855 | 22163 ft | 434 kts | 82° |
| 2026-04-30 12:27 | 38.84179 | 13.64755 | 22654 ft | 440 kts | 95° |
| 2026-04-30 12:27 | 38.83848 | 13.68688 | 23140 ft | 443 kts | 94° |
| 2026-04-30 12:27 | 38.83513 | 13.72643 | 23610 ft | 446 kts | 94° |
| 2026-04-30 12:28 | 38.83178 | 13.76562 | 23991 ft | 450 kts | 94° |
| 2026-04-30 12:28 | 38.82834 | 13.80562 | 24366 ft | 452 kts | 94° |
| 2026-04-30 12:28 | 38.82490 | 13.84597 | 24746 ft | 455 kts | 94° |
| 2026-04-30 12:28 | 38.82147 | 13.88654 | 25147 ft | 457 kts | 94° |
| 2026-04-30 12:29 | 38.81802 | 13.92716 | 25522 ft | 459 kts | 94° |
| 2026-04-30 12:29 | 38.81458 | 13.96750 | 25877 ft | 461 kts | 94° |
| 2026-04-30 12:29 | 38.81105 | 14.00850 | 26224 ft | 464 kts | 94° |
| 2026-04-30 12:29 | 38.80748 | 14.04977 | 26572 ft | 466 kts | 94° |
| 2026-04-30 12:30 | 38.80387 | 14.09123 | 26908 ft | 469 kts | 94° |
| 2026-04-30 12:30 | 38.80020 | 14.13288 | 27237 ft | 471 kts | 94° |
| 2026-04-30 12:30 | 38.79651 | 14.17485 | 27554 ft | 474 kts | 94° |
| 2026-04-30 12:30 | 38.79281 | 14.21702 | 27889 ft | 476 kts | 94° |
| 2026-04-30 12:31 | 38.78914 | 14.25879 | 28236 ft | 477 kts | 94° |
| 2026-04-30 12:31 | 38.78541 | 14.30124 | 28558 ft | 479 kts | 94° |
| 2026-04-30 12:31 | 38.78164 | 14.34386 | 28856 ft | 481 kts | 94° |
| 2026-04-30 12:31 | 38.77779 | 14.38665 | 29143 ft | 484 kts | 94° |
| 2026-04-30 12:32 | 38.77392 | 14.42917 | 29416 ft | 486 kts | 94° |
| 2026-04-30 12:32 | 38.77000 | 14.47230 | 29680 ft | 488 kts | 94° |
| 2026-04-30 12:32 | 38.76606 | 14.51567 | 29935 ft | 490 kts | 94° |
| 2026-04-30 12:32 | 38.76212 | 14.55925 | 30177 ft | 492 kts | 94° |
| 2026-04-30 12:33 | 38.75823 | 14.60226 | 30374 ft | 493 kts | 94° |
| 2026-04-30 12:33 | 38.75385 | 14.65033 | 30657 ft | 493 kts | 94° |
| 2026-04-30 12:33 | 38.74984 | 14.69406 | 30933 ft | 493 kts | 94° |
| 2026-04-30 12:33 | 38.74583 | 14.73733 | 31203 ft | 493 kts | 94° |
| 2026-04-30 12:34 | 38.74173 | 14.78112 | 31467 ft | 494 kts | 94° |
| 2026-04-30 12:34 | 38.73762 | 14.82486 | 31736 ft | 494 kts | 94° |
| 2026-04-30 12:34 | 38.73355 | 14.86798 | 32003 ft | 494 kts | 94° |
| 2026-04-30 12:34 | 38.72943 | 14.91175 | 32279 ft | 494 kts | 94° |
| 2026-04-30 12:35 | 38.72531 | 14.95546 | 32596 ft | 492 kts | 94° |
| 2026-04-30 12:35 | 38.72120 | 14.99903 | 32915 ft | 491 kts | 94° |
| 2026-04-30 12:35 | 38.71847 | 15.02791 | 33028 ft | 492 kts | 94° |
| 2026-04-30 12:35 | 38.71298 | 15.08549 | 33072 ft | 489 kts | 94° |
| 2026-04-30 12:36 | 38.70606 | 15.15744 | 33070 ft | 488 kts | 94° |
| 2026-04-30 12:36 | 38.69769 | 15.24377 | 33070 ft | 488 kts | 94° |
| 2026-04-30 12:37 | 38.68926 | 15.32963 | 33068 ft | 487 kts | 95° |
| 2026-04-30 12:37 | 38.67946 | 15.41555 | 33061 ft | 487 kts | 97° |
| 2026-04-30 12:38 | 38.66809 | 15.50056 | 33064 ft | 487 kts | 97° |
| 2026-04-30 12:38 | 38.65649 | 15.58619 | 33059 ft | 486 kts | 97° |
| 2026-04-30 12:39 | 38.64541 | 15.67115 | 33069 ft | 486 kts | 97° |
| 2026-04-30 12:39 | 38.63445 | 15.75662 | 33072 ft | 485 kts | 97° |
| 2026-04-30 12:40 | 38.62346 | 15.84129 | 33068 ft | 485 kts | 97° |
| 2026-04-30 12:40 | 38.61222 | 15.92641 | 33067 ft | 484 kts | 97° |
| 2026-04-30 12:41 | 38.60103 | 16.01096 | 33070 ft | 484 kts | 97° |
| 2026-04-30 12:41 | 38.58971 | 16.09581 | 33083 ft | 483 kts | 97° |
| 2026-04-30 12:42 | 38.57843 | 16.18005 | 33080 ft | 482 kts | 98° |
| 2026-04-30 12:42 | 38.56703 | 16.26461 | 33076 ft | 482 kts | 98° |
| 2026-04-30 12:43 | 38.55557 | 16.34926 | 33098 ft | 482 kts | 98° |
| 2026-04-30 12:43 | 38.54413 | 16.43324 | 33097 ft | 481 kts | 98° |
| 2026-04-30 12:44 | 38.53258 | 16.51741 | 33102 ft | 480 kts | 98° |
| 2026-04-30 12:44 | 38.52109 | 16.60096 | 33096 ft | 479 kts | 98° |
| 2026-04-30 12:45 | 38.50948 | 16.68493 | 33085 ft | 479 kts | 98° |
| 2026-04-30 12:45 | 38.49785 | 16.76845 | 33092 ft | 479 kts | 99° |
| 2026-04-30 12:46 | 38.48606 | 16.85227 | 33092 ft | 479 kts | 99° |
| 2026-04-30 12:46 | 38.47592 | 16.93569 | 33082 ft | 477 kts | 91° |
| 2026-04-30 12:47 | 38.47733 | 17.01978 | 33072 ft | 476 kts | 86° |
| 2026-04-30 12:47 | 38.47979 | 17.10441 | 33082 ft | 476 kts | 86° |
| 2026-04-30 12:48 | 38.48213 | 17.18853 | 33071 ft | 476 kts | 86° |
| 2026-04-30 12:48 | 38.48447 | 17.27325 | 33070 ft | 476 kts | 86° |
| 2026-04-30 12:49 | 38.48678 | 17.35743 | 33068 ft | 477 kts | 86° |
| 2026-04-30 12:49 | 38.48900 | 17.44228 | 33079 ft | 477 kts | 87° |
| 2026-04-30 12:50 | 38.49111 | 17.52656 | 33075 ft | 477 kts | 87° |
| 2026-04-30 12:50 | 38.49313 | 17.61139 | 33071 ft | 477 kts | 87° |
| 2026-04-30 12:51 | 38.49511 | 17.69560 | 33076 ft | 477 kts | 87° |
| 2026-04-30 12:51 | 38.49708 | 17.78030 | 33071 ft | 477 kts | 88° |
| 2026-04-30 12:52 | 38.49892 | 17.86460 | 33064 ft | 477 kts | 88° |
| 2026-04-30 12:52 | 38.50076 | 17.94964 | 33061 ft | 478 kts | 88° |
| 2026-04-30 12:53 | 38.50254 | 18.03411 | 33062 ft | 478 kts | 88° |
| 2026-04-30 12:53 | 38.50426 | 18.11931 | 33062 ft | 478 kts | 88° |
| 2026-04-30 12:54 | 38.50585 | 18.20399 | 33066 ft | 478 kts | 88° |
| 2026-04-30 12:54 | 38.50741 | 18.28859 | 33065 ft | 478 kts | 88° |
| 2026-04-30 12:55 | 38.50895 | 18.37365 | 33064 ft | 478 kts | 88° |
| 2026-04-30 12:55 | 38.51044 | 18.45824 | 33067 ft | 478 kts | 88° |
| 2026-04-30 12:56 | 38.51189 | 18.54326 | 33061 ft | 479 kts | 88° |
| 2026-04-30 12:56 | 38.51321 | 18.62853 | 33060 ft | 479 kts | 88° |
| 2026-04-30 12:57 | 38.51444 | 18.71320 | 33066 ft | 480 kts | 88° |
| 2026-04-30 12:57 | 38.51571 | 18.79855 | 33072 ft | 480 kts | 88° |
| 2026-04-30 12:58 | 38.51690 | 18.88341 | 33056 ft | 480 kts | 88° |
| 2026-04-30 12:58 | 38.51745 | 18.96881 | 33049 ft | 481 kts | 93° |
| 2026-04-30 12:59 | 38.50456 | 19.05189 | 33052 ft | 480 kts | 110° |
| 2026-04-30 12:59 | 38.48315 | 19.13292 | 33050 ft | 481 kts | 109° |
| 2026-04-30 13:00 | 38.46219 | 19.21381 | 32078 ft | 486 kts | 109° |
| 2026-04-30 13:00 | 38.45134 | 19.25538 | 30644 ft | 498 kts | 109° |
| 2026-04-30 13:00 | 38.44025 | 19.29762 | 29497 ft | 500 kts | 109° |
| 2026-04-30 13:01 | 38.42917 | 19.33956 | 28465 ft | 498 kts | 109° |
| 2026-04-30 13:01 | 38.41807 | 19.38137 | 27702 ft | 492 kts | 109° |
| 2026-04-30 13:01 | 38.40723 | 19.42203 | 27012 ft | 485 kts | 109° |
| 2026-04-30 13:01 | 38.39638 | 19.46264 | 26312 ft | 480 kts | 109° |
| 2026-04-30 13:02 | 38.38564 | 19.50286 | 25619 ft | 475 kts | 109° |
| 2026-04-30 13:02 | 38.37515 | 19.54209 | 24949 ft | 471 kts | 109° |
| 2026-04-30 13:02 | 38.36456 | 19.58164 | 24279 ft | 467 kts | 109° |
| 2026-04-30 13:02 | 38.35409 | 19.62074 | 23624 ft | 464 kts | 109° |
| 2026-04-30 13:03 | 38.34371 | 19.65953 | 22940 ft | 459 kts | 109° |
| 2026-04-30 13:03 | 38.33361 | 19.69723 | 22378 ft | 452 kts | 109° |
| 2026-04-30 13:03 | 38.32349 | 19.73494 | 21825 ft | 447 kts | 109° |
| 2026-04-30 13:03 | 38.31347 | 19.77216 | 21308 ft | 441 kts | 109° |
| 2026-04-30 13:04 | 38.30353 | 19.80897 | 20807 ft | 436 kts | 109° |
| 2026-04-30 13:04 | 38.29364 | 19.84537 | 20295 ft | 432 kts | 109° |
| 2026-04-30 13:04 | 38.28389 | 19.88111 | 19792 ft | 429 kts | 109° |
| 2026-04-30 13:04 | 38.27359 | 19.91661 | 19272 ft | 426 kts | 116° |
| 2026-04-30 13:05 | 38.25719 | 19.94765 | 18760 ft | 419 kts | 136° |
| 2026-04-30 13:05 | 38.23449 | 19.97036 | 18030 ft | 415 kts | 155° |
| 2026-04-30 13:05 | 38.20785 | 19.98199 | 17424 ft | 405 kts | 175° |
| 2026-04-30 13:06 | 38.15308 | 19.97900 | 16301 ft | 391 kts | 189° |
| 2026-04-30 13:06 | 38.12615 | 19.97719 | 16111 ft | 381 kts | 186° |
| 2026-04-30 13:06 | 38.10017 | 19.97727 | 15807 ft | 374 kts | 182° |
| 2026-04-30 13:06 | 38.07416 | 19.97917 | 15375 ft | 372 kts | 179° |
| 2026-04-30 13:07 | 38.04855 | 19.98476 | 14919 ft | 375 kts | 166° |
| 2026-04-30 13:07 | 38.02530 | 19.99920 | 14473 ft | 379 kts | 148° |
| 2026-04-30 13:07 | 38.00602 | 20.02217 | 14022 ft | 381 kts | 129° |
| 2026-04-30 13:07 | 37.99292 | 20.05139 | 13538 ft | 382 kts | 111° |
| 2026-04-30 13:08 | 37.98727 | 20.08409 | 13052 ft | 379 kts | 92° |
| 2026-04-30 13:08 | 37.98914 | 20.11668 | 12578 ft | 374 kts | 75° |
| 2026-04-30 13:08 | 37.99785 | 20.14738 | 12110 ft | 367 kts | 63° |
| 2026-04-30 13:08 | 38.00788 | 20.17661 | 11963 ft | 355 kts | 64° |
| 2026-04-30 13:09 | 38.01713 | 20.20523 | 11838 ft | 343 kts | 65° |
| 2026-04-30 13:09 | 38.02567 | 20.23256 | 11720 ft | 332 kts | 67° |
| 2026-04-30 13:09 | 38.02988 | 20.26095 | 11542 ft | 325 kts | 91° |
| 2026-04-30 13:09 | 38.02472 | 20.28854 | 11244 ft | 320 kts | 118° |
| 2026-04-30 13:10 | 38.01135 | 20.31044 | 10900 ft | 311 kts | 143° |
| 2026-04-30 13:10 | 37.99466 | 20.32731 | 10558 ft | 310 kts | 143° |
| 2026-04-30 13:10 | 37.97883 | 20.34601 | 10245 ft | 310 kts | 136° |
| 2026-04-30 13:10 | 37.96486 | 20.36686 | 9905 ft | 309 kts | 129° |
| 2026-04-30 13:11 | 37.95319 | 20.38934 | 9536 ft | 308 kts | 121° |
| 2026-04-30 13:11 | 37.94369 | 20.41367 | 9206 ft | 306 kts | 114° |
| 2026-04-30 13:11 | 37.93673 | 20.43865 | 9084 ft | 296 kts | 107° |
| 2026-04-30 13:11 | 37.93199 | 20.46398 | 8634 ft | 299 kts | 100° |
| 2026-04-30 13:12 | 37.92958 | 20.48997 | 8440 ft | 291 kts | 93° |
| 2026-04-30 13:12 | 37.92937 | 20.51489 | 8284 ft | 281 kts | 87° |
| 2026-04-30 13:12 | 37.93119 | 20.53966 | 7745 ft | 280 kts | 80° |
| 2026-04-30 13:13 | 37.94083 | 20.58643 | 6725 ft | 269 kts | 68° |
| 2026-04-30 13:13 | 37.94823 | 20.60772 | 6173 ft | 267 kts | 58° |
| 2026-04-30 13:13 | 37.97841 | 20.62728 | 4964 ft | 249 kts | 345° |
| 2026-04-30 13:14 | 37.99407 | 20.61880 | 4239 ft | 246 kts | 326° |
| 2026-04-30 13:14 | 38.00770 | 20.60602 | 3500 ft | 247 kts | 320° |
| 2026-04-30 13:14 | 38.03360 | 20.57874 | 2525 ft | 225 kts | 320° |
| 2026-04-30 13:15 | 38.04540 | 20.56641 | 2340 ft | 212 kts | 320° |
| 2026-04-30 13:15 | 38.06687 | 20.54490 | 1522 ft | 188 kts | 322° |
| 2026-04-30 13:15 | 38.07727 | 20.53566 | 1023 ft | 176 kts | 324° |
| 2026-04-30 13:16 | 38.08764 | 20.52784 | 685 ft | 168 kts | 326° |
| 2026-04-30 13:16 | 38.09702 | 20.52025 | 464 ft | 155 kts | 326° |
| 2026-04-30 13:16 | 38.10580 | 20.51281 | 211 ft | 147 kts | 323° |
| 2026-04-30 13:17 | 38.11934 | 20.50107 | 68 ft | 48 kts | 326° |
| 2026-04-30 13:17 | 38.12195 | 20.49888 | 64 ft | 42 kts | 334° |
| 2026-04-30 13:17 | 38.12327 | 20.49708 | 60 ft | 10 kts | 355° |
| 2026-04-30 13:18 | 38.12549 | 20.49578 | 52 ft | 40 kts | 327° |
| 2026-04-30 13:18 | 38.12863 | 20.49283 | 40 ft | 15 kts | 5° |
| 2026-04-30 13:18 | 38.12887 | 20.49332 | 40 ft | 7 kts | 136° |
| 2026-04-30 13:19 | 38.12586 | 20.49563 | 51 ft | 85 kts | 147° |
| 2026-04-30 13:19 | 38.12151 | 20.49922 | 63 ft | 69 kts | 147° |
| 2026-04-30 13:19 | 38.11884 | 20.50159 | 65 ft | 31 kts | 138° |
| 2026-04-30 13:19 | 38.11891 | 20.50245 | 63 ft | 11 kts | 51° |
| 2026-04-30 13:20 | 38.11954 | 20.50359 | 61 ft | 7 kts | 56° |
| 2026-04-30 13:20 | 38.11954 | 20.50361 | 62 ft | 0 kts | 56° |